sensor_id;sensor_type;location;lat;lon;timestamp;P1;durP1;ratioP1;P2;durP2;ratioP2
44270;SDS011;29963;44.594;11.368;2022-12-10T00:00:40;29.73;;;23.10;;
44270;SDS011;29963;44.594;11.368;2022-12-10T00:03:05;27.48;;;22.85;;
44270;SDS011;29963;44.594;11.368;2022-12-10T00:05:34;30.85;;;23.48;;
44270;SDS011;29963;44.594;11.368;2022-12-10T00:08:00;29.98;;;24.23;;
44270;SDS011;29963;44.594;11.368;2022-12-10T00:10:26;31.38;;;24.50;;
44270;SDS011;29963;44.594;11.368;2022-12-10T00:12:52;31.48;;;24.17;;
44270;SDS011;29963;44.594;11.368;2022-12-10T00:15:17;34.58;;;25.45;;
44270;SDS011;29963;44.594;11.368;2022-12-10T00:17:43;31.88;;;24.98;;
44270;SDS011;29963;44.594;11.368;2022-12-10T00:20:11;31.63;;;25.10;;
44270;SDS011;29963;44.594;11.368;2022-12-10T00:22:37;29.08;;;22.70;;
44270;SDS011;29963;44.594;11.368;2022-12-10T00:25:02;35.22;;;25.42;;
44270;SDS011;29963;44.594;11.368;2022-12-10T00:27:30;32.47;;;24.92;;
44270;SDS011;29963;44.594;11.368;2022-12-10T00:29:56;33.78;;;24.92;;
44270;SDS011;29963;44.594;11.368;2022-12-10T00:32:21;32.28;;;24.25;;
44270;SDS011;29963;44.594;11.368;2022-12-10T00:34:47;32.22;;;24.00;;
44270;SDS011;29963;44.594;11.368;2022-12-10T00:37:13;30.88;;;23.65;;
44270;SDS011;29963;44.594;11.368;2022-12-10T00:39:38;30.15;;;22.80;;
44270;SDS011;29963;44.594;11.368;2022-12-10T00:42:04;30.88;;;25.30;;
44270;SDS011;29963;44.594;11.368;2022-12-10T00:44:29;32.65;;;23.58;;
44270;SDS011;29963;44.594;11.368;2022-12-10T00:46:58;28.27;;;23.20;;
44270;SDS011;29963;44.594;11.368;2022-12-10T00:49:23;33.58;;;25.17;;
44270;SDS011;29963;44.594;11.368;2022-12-10T00:51:49;32.53;;;23.80;;
44270;SDS011;29963;44.594;11.368;2022-12-10T00:54:15;31.63;;;22.45;;
44270;SDS011;29963;44.594;11.368;2022-12-10T00:56:41;28.83;;;21.50;;
44270;SDS011;29963;44.594;11.368;2022-12-10T00:59:07;30.38;;;21.88;;
44270;SDS011;29963;44.594;11.368;2022-12-10T01:01:41;27.13;;;21.60;;
44270;SDS011;29963;44.594;11.368;2022-12-10T01:04:12;32.10;;;22.15;;
44270;SDS011;29963;44.594;11.368;2022-12-10T01:06:40;30.33;;;21.67;;
44270;SDS011;29963;44.594;11.368;2022-12-10T01:09:07;32.42;;;23.67;;
44270;SDS011;29963;44.594;11.368;2022-12-10T01:11:36;31.95;;;24.02;;
44270;SDS011;29963;44.594;11.368;2022-12-10T01:14:03;27.52;;;21.65;;
44270;SDS011;29963;44.594;11.368;2022-12-10T01:16:31;31.27;;;24.58;;
44270;SDS011;29963;44.594;11.368;2022-12-10T01:18:57;28.48;;;23.02;;
44270;SDS011;29963;44.594;11.368;2022-12-10T01:21:23;32.75;;;25.85;;
44270;SDS011;29963;44.594;11.368;2022-12-10T01:23:50;32.42;;;23.23;;
44270;SDS011;29963;44.594;11.368;2022-12-10T01:26:19;31.02;;;23.67;;
44270;SDS011;29963;44.594;11.368;2022-12-10T01:28:46;32.17;;;24.10;;
44270;SDS011;29963;44.594;11.368;2022-12-10T01:31:20;31.92;;;23.30;;
44270;SDS011;29963;44.594;11.368;2022-12-10T01:33:47;29.95;;;22.15;;
44270;SDS011;29963;44.594;11.368;2022-12-10T01:36:14;30.15;;;22.92;;
44270;SDS011;29963;44.594;11.368;2022-12-10T01:38:41;30.00;;;21.65;;
44270;SDS011;29963;44.594;11.368;2022-12-10T01:41:08;33.00;;;24.45;;
44270;SDS011;29963;44.594;11.368;2022-12-10T01:43:50;33.13;;;24.88;;
44270;SDS011;29963;44.594;11.368;2022-12-10T01:46:21;36.00;;;24.70;;
44270;SDS011;29963;44.594;11.368;2022-12-10T01:48:48;32.85;;;24.30;;
44270;SDS011;29963;44.594;11.368;2022-12-10T01:51:15;34.78;;;26.65;;
44270;SDS011;29963;44.594;11.368;2022-12-10T01:53:44;34.65;;;26.42;;
44270;SDS011;29963;44.594;11.368;2022-12-10T01:56:11;30.45;;;23.85;;
44270;SDS011;29963;44.594;11.368;2022-12-10T01:58:37;29.70;;;21.83;;
44270;SDS011;29963;44.594;11.368;2022-12-10T02:01:08;30.17;;;22.98;;
44270;SDS011;29963;44.594;11.368;2022-12-10T02:14:52;25.95;;;20.40;;
44270;SDS011;29963;44.594;11.368;2022-12-10T02:17:24;30.58;;;22.02;;
44270;SDS011;29963;44.594;11.368;2022-12-10T02:22:38;28.85;;;22.25;;
44270;SDS011;29963;44.594;11.368;2022-12-10T02:25:33;27.02;;;21.48;;
44270;SDS011;29963;44.594;11.368;2022-12-10T02:28:12;27.02;;;20.83;;
44270;SDS011;29963;44.594;11.368;2022-12-10T02:30:38;33.20;;;22.98;;
44270;SDS011;29963;44.594;11.368;2022-12-10T02:33:07;33.30;;;23.25;;
44270;SDS011;29963;44.594;11.368;2022-12-10T02:35:35;28.23;;;22.60;;
44270;SDS011;29963;44.594;11.368;2022-12-10T02:38:05;33.13;;;22.50;;
44270;SDS011;29963;44.594;11.368;2022-12-10T02:40:37;27.30;;;20.80;;
44270;SDS011;29963;44.594;11.368;2022-12-10T02:43:08;25.73;;;20.40;;
44270;SDS011;29963;44.594;11.368;2022-12-10T02:45:37;25.17;;;20.15;;
44270;SDS011;29963;44.594;11.368;2022-12-10T02:48:03;28.02;;;19.95;;
44270;SDS011;29963;44.594;11.368;2022-12-10T02:50:30;27.55;;;20.08;;
44270;SDS011;29963;44.594;11.368;2022-12-10T02:52:56;28.38;;;19.40;;
44270;SDS011;29963;44.594;11.368;2022-12-10T02:55:21;25.17;;;18.58;;
44270;SDS011;29963;44.594;11.368;2022-12-10T03:00:29;23.02;;;18.27;;
44270;SDS011;29963;44.594;11.368;2022-12-10T03:11:14;22.73;;;18.13;;
44270;SDS011;29963;44.594;11.368;2022-12-10T03:16:35;24.75;;;18.17;;
44270;SDS011;29963;44.594;11.368;2022-12-10T03:19:04;25.27;;;19.20;;
44270;SDS011;29963;44.594;11.368;2022-12-10T03:21:35;22.23;;;16.33;;
44270;SDS011;29963;44.594;11.368;2022-12-10T03:24:03;22.80;;;16.88;;
44270;SDS011;29963;44.594;11.368;2022-12-10T03:26:30;22.50;;;16.63;;
44270;SDS011;29963;44.594;11.368;2022-12-10T03:28:57;26.00;;;19.23;;
44270;SDS011;29963;44.594;11.368;2022-12-10T03:31:28;21.17;;;15.98;;
44270;SDS011;29963;44.594;11.368;2022-12-10T03:33:56;26.25;;;17.55;;
44270;SDS011;29963;44.594;11.368;2022-12-10T03:36:24;22.65;;;17.60;;
44270;SDS011;29963;44.594;11.368;2022-12-10T03:38:53;24.73;;;19.10;;
44270;SDS011;29963;44.594;11.368;2022-12-10T03:41:19;23.98;;;18.52;;
44270;SDS011;29963;44.594;11.368;2022-12-10T03:46:17;25.23;;;17.27;;
44270;SDS011;29963;44.594;11.368;2022-12-10T03:48:46;23.85;;;18.23;;
44270;SDS011;29963;44.594;11.368;2022-12-10T03:51:11;22.30;;;17.10;;
44270;SDS011;29963;44.594;11.368;2022-12-10T03:53:37;21.67;;;16.65;;
44270;SDS011;29963;44.594;11.368;2022-12-10T03:56:03;25.45;;;19.55;;
44270;SDS011;29963;44.594;11.368;2022-12-10T03:58:28;24.45;;;18.00;;
44270;SDS011;29963;44.594;11.368;2022-12-10T04:00:54;25.40;;;18.90;;
44270;SDS011;29963;44.594;11.368;2022-12-10T04:03:20;25.17;;;18.50;;
44270;SDS011;29963;44.594;11.368;2022-12-10T04:05:45;28.15;;;19.45;;
44270;SDS011;29963;44.594;11.368;2022-12-10T04:08:11;28.05;;;19.35;;
44270;SDS011;29963;44.594;11.368;2022-12-10T04:10:37;27.65;;;20.02;;
44270;SDS011;29963;44.594;11.368;2022-12-10T04:13:03;25.08;;;18.70;;
44270;SDS011;29963;44.594;11.368;2022-12-10T04:15:47;23.23;;;17.48;;
44270;SDS011;29963;44.594;11.368;2022-12-10T04:18:31;25.50;;;19.20;;
44270;SDS011;29963;44.594;11.368;2022-12-10T04:20:57;23.70;;;18.58;;
44270;SDS011;29963;44.594;11.368;2022-12-10T04:23:41;25.73;;;20.20;;
44270;SDS011;29963;44.594;11.368;2022-12-10T04:26:25;27.80;;;18.92;;
44270;SDS011;29963;44.594;11.368;2022-12-10T04:29:09;22.70;;;18.10;;
44270;SDS011;29963;44.594;11.368;2022-12-10T04:31:35;26.20;;;20.13;;
44270;SDS011;29963;44.594;11.368;2022-12-10T04:34:01;27.60;;;20.85;;
44270;SDS011;29963;44.594;11.368;2022-12-10T04:36:26;26.90;;;19.10;;
44270;SDS011;29963;44.594;11.368;2022-12-10T04:38:55;24.55;;;19.67;;
44270;SDS011;29963;44.594;11.368;2022-12-10T04:41:21;28.50;;;20.33;;
44270;SDS011;29963;44.594;11.368;2022-12-10T04:43:46;26.20;;;20.95;;
44270;SDS011;29963;44.594;11.368;2022-12-10T04:46:12;27.80;;;19.42;;
44270;SDS011;29963;44.594;11.368;2022-12-10T04:48:38;24.33;;;20.55;;
44270;SDS011;29963;44.594;11.368;2022-12-10T04:51:06;25.23;;;19.35;;
44270;SDS011;29963;44.594;11.368;2022-12-10T04:53:32;25.98;;;19.60;;
44270;SDS011;29963;44.594;11.368;2022-12-10T04:55:57;27.83;;;21.02;;
44270;SDS011;29963;44.594;11.368;2022-12-10T04:58:23;26.48;;;20.10;;
44270;SDS011;29963;44.594;11.368;2022-12-10T05:00:48;27.48;;;20.42;;
44270;SDS011;29963;44.594;11.368;2022-12-10T05:03:14;25.20;;;20.65;;
44270;SDS011;29963;44.594;11.368;2022-12-10T05:05:40;25.63;;;19.10;;
44270;SDS011;29963;44.594;11.368;2022-12-10T05:08:05;27.17;;;20.17;;
44270;SDS011;29963;44.594;11.368;2022-12-10T05:10:33;28.70;;;20.50;;
44270;SDS011;29963;44.594;11.368;2022-12-10T05:12:59;25.83;;;19.27;;
44270;SDS011;29963;44.594;11.368;2022-12-10T05:15:25;27.15;;;20.30;;
44270;SDS011;29963;44.594;11.368;2022-12-10T05:17:50;27.55;;;20.77;;
44270;SDS011;29963;44.594;11.368;2022-12-10T05:20:16;25.77;;;19.33;;
44270;SDS011;29963;44.594;11.368;2022-12-10T05:22:42;24.17;;;19.50;;
44270;SDS011;29963;44.594;11.368;2022-12-10T05:25:26;25.58;;;20.02;;
44270;SDS011;29963;44.594;11.368;2022-12-10T05:27:51;26.52;;;20.48;;
44270;SDS011;29963;44.594;11.368;2022-12-10T05:30:17;29.35;;;21.27;;
44270;SDS011;29963;44.594;11.368;2022-12-10T05:32:43;26.58;;;21.13;;
44270;SDS011;29963;44.594;11.368;2022-12-10T05:35:09;24.40;;;19.67;;
44270;SDS011;29963;44.594;11.368;2022-12-10T05:37:34;26.77;;;20.02;;
44270;SDS011;29963;44.594;11.368;2022-12-10T05:40:00;25.75;;;20.15;;
44270;SDS011;29963;44.594;11.368;2022-12-10T05:42:25;23.08;;;20.38;;
44270;SDS011;29963;44.594;11.368;2022-12-10T05:44:51;26.73;;;20.60;;
44270;SDS011;29963;44.594;11.368;2022-12-10T05:47:17;27.55;;;21.02;;
44270;SDS011;29963;44.594;11.368;2022-12-10T05:49:42;25.08;;;20.23;;
44270;SDS011;29963;44.594;11.368;2022-12-10T05:52:08;26.73;;;21.48;;
44270;SDS011;29963;44.594;11.368;2022-12-10T05:54:34;27.27;;;20.83;;
44270;SDS011;29963;44.594;11.368;2022-12-10T05:56:59;27.70;;;22.10;;
44270;SDS011;29963;44.594;11.368;2022-12-10T05:59:25;30.85;;;22.98;;
44270;SDS011;29963;44.594;11.368;2022-12-10T06:01:51;29.40;;;24.65;;
44270;SDS011;29963;44.594;11.368;2022-12-10T06:04:16;31.05;;;24.48;;
44270;SDS011;29963;44.594;11.368;2022-12-10T06:06:42;31.65;;;24.40;;
44270;SDS011;29963;44.594;11.368;2022-12-10T06:09:10;38.78;;;23.90;;
44270;SDS011;29963;44.594;11.368;2022-12-10T06:11:37;31.05;;;23.58;;
44270;SDS011;29963;44.594;11.368;2022-12-10T06:14:03;29.92;;;23.73;;
44270;SDS011;29963;44.594;11.368;2022-12-10T06:16:28;29.98;;;22.98;;
44270;SDS011;29963;44.594;11.368;2022-12-10T06:18:54;28.38;;;22.35;;
44270;SDS011;29963;44.594;11.368;2022-12-10T06:21:21;29.15;;;22.13;;
44270;SDS011;29963;44.594;11.368;2022-12-10T06:23:48;28.73;;;22.88;;
44270;SDS011;29963;44.594;11.368;2022-12-10T06:26:17;29.50;;;22.10;;
44270;SDS011;29963;44.594;11.368;2022-12-10T06:28:47;28.52;;;21.00;;
44270;SDS011;29963;44.594;11.368;2022-12-10T06:31:13;27.88;;;22.92;;
44270;SDS011;29963;44.594;11.368;2022-12-10T06:33:40;25.58;;;21.67;;
44270;SDS011;29963;44.594;11.368;2022-12-10T06:36:07;29.77;;;23.35;;
44270;SDS011;29963;44.594;11.368;2022-12-10T06:38:35;34.00;;;24.42;;
44270;SDS011;29963;44.594;11.368;2022-12-10T06:41:03;29.65;;;23.00;;
44270;SDS011;29963;44.594;11.368;2022-12-10T06:43:31;33.03;;;23.58;;
44270;SDS011;29963;44.594;11.368;2022-12-10T06:45:56;29.55;;;23.25;;
44270;SDS011;29963;44.594;11.368;2022-12-10T06:48:22;31.90;;;25.50;;
44270;SDS011;29963;44.594;11.368;2022-12-10T06:50:48;33.42;;;24.85;;
44270;SDS011;29963;44.594;11.368;2022-12-10T06:53:13;29.55;;;23.17;;
44270;SDS011;29963;44.594;11.368;2022-12-10T06:55:39;30.77;;;24.13;;
44270;SDS011;29963;44.594;11.368;2022-12-10T06:58:05;27.35;;;24.15;;
44270;SDS011;29963;44.594;11.368;2022-12-10T07:00:30;33.45;;;24.10;;
44270;SDS011;29963;44.594;11.368;2022-12-10T07:02:56;29.45;;;24.15;;
44270;SDS011;29963;44.594;11.368;2022-12-10T07:05:22;30.92;;;24.33;;
44270;SDS011;29963;44.594;11.368;2022-12-10T07:07:48;25.75;;;21.92;;
44270;SDS011;29963;44.594;11.368;2022-12-10T07:10:13;28.83;;;23.35;;
44270;SDS011;29963;44.594;11.368;2022-12-10T07:12:40;29.80;;;23.05;;
44270;SDS011;29963;44.594;11.368;2022-12-10T07:15:05;28.83;;;24.83;;
44270;SDS011;29963;44.594;11.368;2022-12-10T07:17:31;30.73;;;22.73;;
44270;SDS011;29963;44.594;11.368;2022-12-10T07:19:57;29.67;;;23.58;;
44270;SDS011;29963;44.594;11.368;2022-12-10T07:22:23;34.65;;;24.98;;
44270;SDS011;29963;44.594;11.368;2022-12-10T07:24:48;33.95;;;25.45;;
44270;SDS011;29963;44.594;11.368;2022-12-10T07:27:15;31.00;;;24.85;;
44270;SDS011;29963;44.594;11.368;2022-12-10T07:29:41;34.65;;;25.35;;
44270;SDS011;29963;44.594;11.368;2022-12-10T07:32:06;32.35;;;26.17;;
44270;SDS011;29963;44.594;11.368;2022-12-10T07:34:32;30.73;;;25.20;;
44270;SDS011;29963;44.594;11.368;2022-12-10T07:36:58;31.38;;;26.33;;
44270;SDS011;29963;44.594;11.368;2022-12-10T07:39:23;30.73;;;24.95;;
44270;SDS011;29963;44.594;11.368;2022-12-10T07:41:49;39.00;;;29.13;;
44270;SDS011;29963;44.594;11.368;2022-12-10T07:44:17;46.13;;;32.80;;
44270;SDS011;29963;44.594;11.368;2022-12-10T07:46:48;34.00;;;26.92;;
44270;SDS011;29963;44.594;11.368;2022-12-10T07:49:15;31.15;;;25.10;;
44270;SDS011;29963;44.594;11.368;2022-12-10T07:51:47;30.63;;;25.77;;
44270;SDS011;29963;44.594;11.368;2022-12-10T07:54:32;30.35;;;25.42;;
44270;SDS011;29963;44.594;11.368;2022-12-10T07:56:59;29.65;;;25.63;;
44270;SDS011;29963;44.594;11.368;2022-12-10T07:59:25;33.50;;;26.45;;
44270;SDS011;29963;44.594;11.368;2022-12-10T08:01:51;31.08;;;26.05;;
44270;SDS011;29963;44.594;11.368;2022-12-10T08:04:17;44.28;;;27.48;;
44270;SDS011;29963;44.594;11.368;2022-12-10T08:06:42;29.52;;;25.50;;
44270;SDS011;29963;44.594;11.368;2022-12-10T08:09:11;32.03;;;25.60;;
44270;SDS011;29963;44.594;11.368;2022-12-10T08:11:37;31.02;;;27.60;;
44270;SDS011;29963;44.594;11.368;2022-12-10T08:14:02;33.28;;;26.98;;
44270;SDS011;29963;44.594;11.368;2022-12-10T08:16:29;32.25;;;27.77;;
44270;SDS011;29963;44.594;11.368;2022-12-10T08:18:59;32.85;;;27.27;;
44270;SDS011;29963;44.594;11.368;2022-12-10T08:21:26;30.95;;;26.70;;
44270;SDS011;29963;44.594;11.368;2022-12-10T08:23:54;32.50;;;28.17;;
44270;SDS011;29963;44.594;11.368;2022-12-10T08:26:21;34.03;;;27.35;;
44270;SDS011;29963;44.594;11.368;2022-12-10T08:28:49;39.17;;;28.67;;
44270;SDS011;29963;44.594;11.368;2022-12-10T08:31:17;37.72;;;27.25;;
44270;SDS011;29963;44.594;11.368;2022-12-10T08:33:44;33.55;;;27.30;;
44270;SDS011;29963;44.594;11.368;2022-12-10T08:36:11;35.95;;;28.33;;
44270;SDS011;29963;44.594;11.368;2022-12-10T08:38:39;37.33;;;30.02;;
44270;SDS011;29963;44.594;11.368;2022-12-10T08:41:06;35.85;;;29.40;;
44270;SDS011;29963;44.594;11.368;2022-12-10T08:43:46;33.53;;;28.05;;
44270;SDS011;29963;44.594;11.368;2022-12-10T08:46:12;36.05;;;27.98;;
44270;SDS011;29963;44.594;11.368;2022-12-10T08:48:39;38.28;;;29.60;;
44270;SDS011;29963;44.594;11.368;2022-12-10T08:51:05;38.25;;;29.85;;
44270;SDS011;29963;44.594;11.368;2022-12-10T08:53:32;34.92;;;28.20;;
44270;SDS011;29963;44.594;11.368;2022-12-10T08:55:58;40.35;;;32.88;;
44270;SDS011;29963;44.594;11.368;2022-12-10T08:58:24;36.58;;;31.40;;
44270;SDS011;29963;44.594;11.368;2022-12-10T09:00:50;38.28;;;30.88;;
44270;SDS011;29963;44.594;11.368;2022-12-10T09:03:16;41.22;;;32.78;;
44270;SDS011;29963;44.594;11.368;2022-12-10T09:05:42;40.05;;;31.85;;
44270;SDS011;29963;44.594;11.368;2022-12-10T09:08:08;40.10;;;32.70;;
44270;SDS011;29963;44.594;11.368;2022-12-10T09:10:35;39.25;;;32.92;;
44270;SDS011;29963;44.594;11.368;2022-12-10T09:13:02;44.10;;;33.85;;
44270;SDS011;29963;44.594;11.368;2022-12-10T09:15:27;43.38;;;33.45;;
44270;SDS011;29963;44.594;11.368;2022-12-10T09:17:53;38.40;;;31.38;;
44270;SDS011;29963;44.594;11.368;2022-12-10T09:20:19;43.75;;;33.22;;
44270;SDS011;29963;44.594;11.368;2022-12-10T09:22:44;42.58;;;33.05;;
44270;SDS011;29963;44.594;11.368;2022-12-10T09:25:10;40.63;;;31.83;;
44270;SDS011;29963;44.594;11.368;2022-12-10T09:27:36;46.22;;;34.53;;
44270;SDS011;29963;44.594;11.368;2022-12-10T09:30:03;42.47;;;32.92;;
44270;SDS011;29963;44.594;11.368;2022-12-10T09:32:29;43.17;;;34.33;;
44270;SDS011;29963;44.594;11.368;2022-12-10T09:34:55;42.72;;;32.97;;
44270;SDS011;29963;44.594;11.368;2022-12-10T09:37:20;43.08;;;33.33;;
44270;SDS011;29963;44.594;11.368;2022-12-10T09:39:46;43.20;;;34.85;;
44270;SDS011;29963;44.594;11.368;2022-12-10T09:42:20;43.50;;;32.80;;
44270;SDS011;29963;44.594;11.368;2022-12-10T09:45:19;43.88;;;34.20;;
44270;SDS011;29963;44.594;11.368;2022-12-10T09:48:28;45.42;;;34.67;;
44270;SDS011;29963;44.594;11.368;2022-12-10T09:53:14;40.35;;;33.08;;
44270;SDS011;29963;44.594;11.368;2022-12-10T09:55:45;40.58;;;33.40;;
44270;SDS011;29963;44.594;11.368;2022-12-10T09:58:22;42.80;;;33.10;;
44270;SDS011;29963;44.594;11.368;2022-12-10T10:00:51;43.72;;;33.38;;
44270;SDS011;29963;44.594;11.368;2022-12-10T10:03:22;43.25;;;33.42;;
44270;SDS011;29963;44.594;11.368;2022-12-10T10:05:48;46.97;;;36.40;;
44270;SDS011;29963;44.594;11.368;2022-12-10T10:08:33;44.90;;;33.85;;
44270;SDS011;29963;44.594;11.368;2022-12-10T10:11:03;38.95;;;32.78;;
44270;SDS011;29963;44.594;11.368;2022-12-10T10:13:31;45.17;;;35.67;;
44270;SDS011;29963;44.594;11.368;2022-12-10T10:24:16;43.22;;;35.65;;
44270;SDS011;29963;44.594;11.368;2022-12-10T10:26:46;45.22;;;35.45;;
44270;SDS011;29963;44.594;11.368;2022-12-10T10:29:14;45.10;;;34.90;;
44270;SDS011;29963;44.594;11.368;2022-12-10T10:31:43;47.67;;;36.60;;
44270;SDS011;29963;44.594;11.368;2022-12-10T10:34:17;51.58;;;37.60;;
44270;SDS011;29963;44.594;11.368;2022-12-10T10:36:44;46.95;;;38.40;;
44270;SDS011;29963;44.594;11.368;2022-12-10T10:41:43;46.05;;;35.75;;
44270;SDS011;29963;44.594;11.368;2022-12-10T10:44:16;47.17;;;35.47;;
44270;SDS011;29963;44.594;11.368;2022-12-10T10:46:46;48.97;;;35.65;;
44270;SDS011;29963;44.594;11.368;2022-12-10T10:51:43;49.25;;;34.80;;
44270;SDS011;29963;44.594;11.368;2022-12-10T10:54:10;46.28;;;35.58;;
44270;SDS011;29963;44.594;11.368;2022-12-10T10:56:42;48.40;;;36.78;;
44270;SDS011;29963;44.594;11.368;2022-12-10T11:01:54;48.78;;;36.30;;
44270;SDS011;29963;44.594;11.368;2022-12-10T11:04:28;45.28;;;36.17;;
44270;SDS011;29963;44.594;11.368;2022-12-10T11:07:02;51.65;;;36.85;;
44270;SDS011;29963;44.594;11.368;2022-12-10T11:09:30;47.88;;;36.88;;
44270;SDS011;29963;44.594;11.368;2022-12-10T11:11:59;49.28;;;37.40;;
44270;SDS011;29963;44.594;11.368;2022-12-10T11:14:31;46.50;;;35.80;;
44270;SDS011;29963;44.594;11.368;2022-12-10T11:17:17;47.58;;;37.40;;
44270;SDS011;29963;44.594;11.368;2022-12-10T11:19:53;44.10;;;35.05;;
44270;SDS011;29963;44.594;11.368;2022-12-10T11:22:24;43.83;;;35.35;;
44270;SDS011;29963;44.594;11.368;2022-12-10T11:24:54;49.05;;;38.28;;
44270;SDS011;29963;44.594;11.368;2022-12-10T11:30:03;46.80;;;37.63;;
44270;SDS011;29963;44.594;11.368;2022-12-10T11:35:33;49.60;;;38.00;;
44270;SDS011;29963;44.594;11.368;2022-12-10T11:38:22;47.63;;;37.28;;
44270;SDS011;29963;44.594;11.368;2022-12-10T12:00:50;60.78;;;42.97;;
44270;SDS011;29963;44.594;11.368;2022-12-10T12:11:25;51.83;;;40.33;;
44270;SDS011;29963;44.594;11.368;2022-12-10T12:14:14;51.63;;;38.55;;
44270;SDS011;29963;44.594;11.368;2022-12-10T12:16:56;53.83;;;40.50;;
44270;SDS011;29963;44.594;11.368;2022-12-10T12:19:54;52.65;;;39.88;;
44270;SDS011;29963;44.594;11.368;2022-12-10T12:22:27;54.45;;;41.20;;
44270;SDS011;29963;44.594;11.368;2022-12-10T12:25:04;56.67;;;40.72;;
44270;SDS011;29963;44.594;11.368;2022-12-10T12:27:43;53.78;;;40.33;;
44270;SDS011;29963;44.594;11.368;2022-12-10T12:30:24;51.75;;;38.60;;
44270;SDS011;29963;44.594;11.368;2022-12-10T12:32:55;54.25;;;39.70;;
44270;SDS011;29963;44.594;11.368;2022-12-10T12:35:42;56.47;;;40.08;;
44270;SDS011;29963;44.594;11.368;2022-12-10T12:41:10;52.47;;;40.05;;
44270;SDS011;29963;44.594;11.368;2022-12-10T12:43:52;53.38;;;41.83;;
44270;SDS011;29963;44.594;11.368;2022-12-10T12:46:37;57.85;;;42.00;;
44270;SDS011;29963;44.594;11.368;2022-12-10T12:49:24;57.70;;;40.33;;
44270;SDS011;29963;44.594;11.368;2022-12-10T12:54:57;57.47;;;42.38;;
44270;SDS011;29963;44.594;11.368;2022-12-10T12:57:40;58.70;;;43.78;;
44270;SDS011;29963;44.594;11.368;2022-12-10T13:00:12;59.00;;;43.28;;
44270;SDS011;29963;44.594;11.368;2022-12-10T13:05:36;57.42;;;42.75;;
44270;SDS011;29963;44.594;11.368;2022-12-10T13:13:27;59.38;;;42.22;;
44270;SDS011;29963;44.594;11.368;2022-12-10T13:16:33;58.75;;;41.75;;
44270;SDS011;29963;44.594;11.368;2022-12-10T13:19:16;60.13;;;41.80;;
44270;SDS011;29963;44.594;11.368;2022-12-10T13:42:57;54.00;;;41.75;;
44270;SDS011;29963;44.594;11.368;2022-12-10T13:49:02;54.05;;;38.90;;
44270;SDS011;29963;44.594;11.368;2022-12-10T13:51:37;52.35;;;39.47;;
44270;SDS011;29963;44.594;11.368;2022-12-10T14:05:32;49.45;;;37.38;;
44270;SDS011;29963;44.594;11.368;2022-12-10T14:08:20;45.75;;;34.80;;
44270;SDS011;29963;44.594;11.368;2022-12-10T14:10:55;51.40;;;36.50;;
44270;SDS011;29963;44.594;11.368;2022-12-10T14:13:24;48.55;;;35.88;;
44270;SDS011;29963;44.594;11.368;2022-12-10T14:15:59;49.13;;;35.42;;
44270;SDS011;29963;44.594;11.368;2022-12-10T14:18:27;46.60;;;35.10;;
44270;SDS011;29963;44.594;11.368;2022-12-10T14:20:53;45.08;;;35.45;;
44270;SDS011;29963;44.594;11.368;2022-12-10T14:23:27;49.63;;;37.05;;
44270;SDS011;29963;44.594;11.368;2022-12-10T14:25:58;46.60;;;35.08;;
44270;SDS011;29963;44.594;11.368;2022-12-10T14:28:40;47.03;;;36.50;;
44270;SDS011;29963;44.594;11.368;2022-12-10T14:31:15;48.70;;;37.40;;
44270;SDS011;29963;44.594;11.368;2022-12-10T14:33:54;45.92;;;36.72;;
44270;SDS011;29963;44.594;11.368;2022-12-10T14:36:30;49.08;;;35.45;;
44270;SDS011;29963;44.594;11.368;2022-12-10T14:39:03;42.63;;;33.85;;
44270;SDS011;29963;44.594;11.368;2022-12-10T14:41:35;45.28;;;34.72;;
44270;SDS011;29963;44.594;11.368;2022-12-10T14:44:01;46.55;;;34.97;;
44270;SDS011;29963;44.594;11.368;2022-12-10T14:46:31;42.97;;;33.28;;
44270;SDS011;29963;44.594;11.368;2022-12-10T14:48:57;41.45;;;31.38;;
44270;SDS011;29963;44.594;11.368;2022-12-10T14:51:24;41.88;;;31.73;;
44270;SDS011;29963;44.594;11.368;2022-12-10T14:53:56;42.38;;;33.30;;
44270;SDS011;29963;44.594;11.368;2022-12-10T14:56:24;42.08;;;32.38;;
44270;SDS011;29963;44.594;11.368;2022-12-10T14:58:57;41.00;;;30.80;;
44270;SDS011;29963;44.594;11.368;2022-12-10T15:01:33;39.70;;;31.05;;
44270;SDS011;29963;44.594;11.368;2022-12-10T15:04:04;40.50;;;31.33;;
44270;SDS011;29963;44.594;11.368;2022-12-10T15:06:35;36.53;;;28.20;;
44270;SDS011;29963;44.594;11.368;2022-12-10T15:09:02;35.30;;;27.40;;
44270;SDS011;29963;44.594;11.368;2022-12-10T15:11:28;35.60;;;29.58;;
44270;SDS011;29963;44.594;11.368;2022-12-10T15:13:57;35.45;;;28.25;;
44270;SDS011;29963;44.594;11.368;2022-12-10T15:18:53;35.97;;;28.75;;
44270;SDS011;29963;44.594;11.368;2022-12-10T15:21:20;33.40;;;27.85;;
44270;SDS011;29963;44.594;11.368;2022-12-10T15:23:48;33.22;;;25.90;;
44270;SDS011;29963;44.594;11.368;2022-12-10T15:26:27;35.40;;;28.77;;
44270;SDS011;29963;44.594;11.368;2022-12-10T15:31:53;34.15;;;26.90;;
44270;SDS011;29963;44.594;11.368;2022-12-10T15:34:22;36.60;;;27.33;;
44270;SDS011;29963;44.594;11.368;2022-12-10T15:36:53;33.55;;;26.48;;
44270;SDS011;29963;44.594;11.368;2022-12-10T15:39:25;37.72;;;29.48;;
44270;SDS011;29963;44.594;11.368;2022-12-10T15:42:05;38.35;;;27.33;;
44270;SDS011;29963;44.594;11.368;2022-12-10T15:44:36;39.70;;;29.20;;
44270;SDS011;29963;44.594;11.368;2022-12-10T15:47:25;34.90;;;27.25;;
44270;SDS011;29963;44.594;11.368;2022-12-10T15:49:53;34.03;;;26.35;;
44270;SDS011;29963;44.594;11.368;2022-12-10T15:52:21;40.00;;;27.75;;
44270;SDS011;29963;44.594;11.368;2022-12-10T15:54:49;39.70;;;27.48;;
44270;SDS011;29963;44.594;11.368;2022-12-10T15:59:44;36.05;;;27.70;;
44270;SDS011;29963;44.594;11.368;2022-12-10T16:04:46;35.85;;;27.92;;
44270;SDS011;29963;44.594;11.368;2022-12-10T16:07:12;38.05;;;31.88;;
44270;SDS011;29963;44.594;11.368;2022-12-10T16:09:40;39.05;;;31.83;;
44270;SDS011;29963;44.594;11.368;2022-12-10T16:12:07;35.67;;;28.58;;
44270;SDS011;29963;44.594;11.368;2022-12-10T16:14:36;37.38;;;27.92;;
44270;SDS011;29963;44.594;11.368;2022-12-10T16:17:01;32.97;;;27.67;;
44270;SDS011;29963;44.594;11.368;2022-12-10T16:19:27;32.92;;;26.95;;
44270;SDS011;29963;44.594;11.368;2022-12-10T16:21:53;31.98;;;26.38;;
44270;SDS011;29963;44.594;11.368;2022-12-10T16:24:19;31.48;;;24.80;;
44270;SDS011;29963;44.594;11.368;2022-12-10T16:26:45;32.10;;;25.02;;
44270;SDS011;29963;44.594;11.368;2022-12-10T16:29:10;35.53;;;24.63;;
44270;SDS011;29963;44.594;11.368;2022-12-10T16:31:36;31.25;;;24.27;;
44270;SDS011;29963;44.594;11.368;2022-12-10T16:34:02;30.77;;;23.40;;
44270;SDS011;29963;44.594;11.368;2022-12-10T16:36:27;31.38;;;24.08;;
44270;SDS011;29963;44.594;11.368;2022-12-10T16:38:53;33.67;;;25.52;;
44270;SDS011;29963;44.594;11.368;2022-12-10T16:41:20;30.65;;;24.85;;
44270;SDS011;29963;44.594;11.368;2022-12-10T16:43:48;31.02;;;24.23;;